sensor_id;sensor_type;location;lat;lon;timestamp;P1;durP1;ratioP1;P2;durP2;ratioP2
73909;SDS011;62245;48.070;7.874;2022-08-14T00:01:56;3.47;;;1.77;;
73909;SDS011;62245;48.070;7.874;2022-08-14T00:04:26;3.63;;;1.98;;
73909;SDS011;62245;48.070;7.874;2022-08-14T00:06:51;5.90;;;1.70;;
73909;SDS011;62245;48.070;7.874;2022-08-14T00:09:17;3.13;;;1.52;;
73909;SDS011;62245;48.070;7.874;2022-08-14T00:11:42;4.53;;;2.07;;
73909;SDS011;62245;48.070;7.874;2022-08-14T00:14:07;4.32;;;2.10;;
73909;SDS011;62245;48.070;7.874;2022-08-14T00:16:33;2.80;;;1.42;;
73909;SDS011;62245;48.070;7.874;2022-08-14T00:18:59;3.40;;;2.03;;
73909;SDS011;62245;48.070;7.874;2022-08-14T00:21:25;3.70;;;1.77;;
73909;SDS011;62245;48.070;7.874;2022-08-14T00:23:51;4.32;;;2.03;;
73909;SDS011;62245;48.070;7.874;2022-08-14T00:26:18;3.88;;;1.65;;
73909;SDS011;62245;48.070;7.874;2022-08-14T00:28:43;2.97;;;1.90;;
73909;SDS011;62245;48.070;7.874;2022-08-14T00:31:08;4.67;;;1.63;;
73909;SDS011;62245;48.070;7.874;2022-08-14T00:33:34;2.75;;;1.40;;
73909;SDS011;62245;48.070;7.874;2022-08-14T00:35:59;3.25;;;1.92;;
73909;SDS011;62245;48.070;7.874;2022-08-14T00:38:24;2.90;;;1.57;;
73909;SDS011;62245;48.070;7.874;2022-08-14T00:40:50;3.03;;;1.60;;
73909;SDS011;62245;48.070;7.874;2022-08-14T00:43:15;3.40;;;1.80;;
73909;SDS011;62245;48.070;7.874;2022-08-14T00:45:41;3.20;;;1.98;;
73909;SDS011;62245;48.070;7.874;2022-08-14T00:48:06;4.00;;;1.88;;
73909;SDS011;62245;48.070;7.874;2022-08-14T00:50:32;3.85;;;1.85;;
73909;SDS011;62245;48.070;7.874;2022-08-14T00:52:58;3.25;;;1.83;;
73909;SDS011;62245;48.070;7.874;2022-08-14T00:55:24;3.67;;;2.00;;
73909;SDS011;62245;48.070;7.874;2022-08-14T00:57:51;2.70;;;1.60;;
73909;SDS011;62245;48.070;7.874;2022-08-14T01:00:36;3.35;;;1.70;;
73909;SDS011;62245;48.070;7.874;2022-08-14T01:03:03;3.65;;;2.15;;
73909;SDS011;62245;48.070;7.874;2022-08-14T01:05:29;4.70;;;1.83;;
73909;SDS011;62245;48.070;7.874;2022-08-14T01:07:55;3.83;;;2.10;;
73909;SDS011;62245;48.070;7.874;2022-08-14T01:10:23;3.17;;;1.80;;
73909;SDS011;62245;48.070;7.874;2022-08-14T01:13:11;3.47;;;2.00;;
73909;SDS011;62245;48.070;7.874;2022-08-14T01:15:40;3.67;;;1.80;;
73909;SDS011;62245;48.070;7.874;2022-08-14T01:18:07;4.13;;;2.10;;
73909;SDS011;62245;48.070;7.874;2022-08-14T01:20:50;5.97;;;2.20;;
73909;SDS011;62245;48.070;7.874;2022-08-14T01:23:50;4.15;;;1.98;;
73909;SDS011;62245;48.070;7.874;2022-08-14T01:26:20;4.00;;;1.65;;
73909;SDS011;62245;48.070;7.874;2022-08-14T01:28:48;3.78;;;1.73;;
73909;SDS011;62245;48.070;7.874;2022-08-14T01:31:16;4.07;;;2.10;;
73909;SDS011;62245;48.070;7.874;2022-08-14T01:33:44;3.85;;;2.13;;
73909;SDS011;62245;48.070;7.874;2022-08-14T01:36:12;4.38;;;2.03;;
73909;SDS011;62245;48.070;7.874;2022-08-14T01:38:41;5.38;;;2.22;;
73909;SDS011;62245;48.070;7.874;2022-08-14T01:41:10;4.25;;;2.10;;
73909;SDS011;62245;48.070;7.874;2022-08-14T01:43:45;3.90;;;1.75;;
73909;SDS011;62245;48.070;7.874;2022-08-14T01:46:16;3.65;;;2.20;;
73909;SDS011;62245;48.070;7.874;2022-08-14T01:48:47;4.85;;;2.17;;
73909;SDS011;62245;48.070;7.874;2022-08-14T01:51:14;4.28;;;2.20;;
73909;SDS011;62245;48.070;7.874;2022-08-14T01:53:41;4.28;;;2.03;;
73909;SDS011;62245;48.070;7.874;2022-08-14T01:56:08;4.38;;;2.42;;
73909;SDS011;62245;48.070;7.874;2022-08-14T01:58:34;3.83;;;1.80;;
73909;SDS011;62245;48.070;7.874;2022-08-14T02:00:59;3.90;;;2.30;;
73909;SDS011;62245;48.070;7.874;2022-08-14T02:03:26;3.57;;;1.83;;
73909;SDS011;62245;48.070;7.874;2022-08-14T02:05:58;4.00;;;1.90;;
73909;SDS011;62245;48.070;7.874;2022-08-14T02:08:25;5.28;;;1.80;;
73909;SDS011;62245;48.070;7.874;2022-08-14T02:10:54;4.32;;;2.00;;
73909;SDS011;62245;48.070;7.874;2022-08-14T02:16:08;4.70;;;2.33;;
73909;SDS011;62245;48.070;7.874;2022-08-14T02:18:45;4.85;;;2.40;;
73909;SDS011;62245;48.070;7.874;2022-08-14T02:21:10;4.47;;;2.10;;
73909;SDS011;62245;48.070;7.874;2022-08-14T02:23:36;3.85;;;2.20;;
73909;SDS011;62245;48.070;7.874;2022-08-14T02:26:13;4.78;;;1.98;;
73909;SDS011;62245;48.070;7.874;2022-08-14T02:28:40;4.10;;;1.90;;
73909;SDS011;62245;48.070;7.874;2022-08-14T02:31:06;5.45;;;2.10;;
73909;SDS011;62245;48.070;7.874;2022-08-14T02:33:32;4.30;;;2.17;;
73909;SDS011;62245;48.070;7.874;2022-08-14T02:35:59;4.13;;;1.80;;
73909;SDS011;62245;48.070;7.874;2022-08-14T02:40:54;4.15;;;1.88;;
73909;SDS011;62245;48.070;7.874;2022-08-14T02:43:20;3.55;;;1.90;;
73909;SDS011;62245;48.070;7.874;2022-08-14T02:45:45;4.13;;;1.90;;
73909;SDS011;62245;48.070;7.874;2022-08-14T02:48:12;3.80;;;1.85;;
73909;SDS011;62245;48.070;7.874;2022-08-14T02:50:38;4.60;;;2.25;;
73909;SDS011;62245;48.070;7.874;2022-08-14T02:53:05;4.35;;;2.20;;
73909;SDS011;62245;48.070;7.874;2022-08-14T02:55:31;3.83;;;2.25;;
73909;SDS011;62245;48.070;7.874;2022-08-14T02:57:56;5.70;;;2.30;;
73909;SDS011;62245;48.070;7.874;2022-08-14T03:00:22;3.38;;;2.05;;
73909;SDS011;62245;48.070;7.874;2022-08-14T03:02:48;4.50;;;2.20;;
73909;SDS011;62245;48.070;7.874;2022-08-14T03:05:14;3.72;;;1.80;;
73909;SDS011;62245;48.070;7.874;2022-08-14T03:07:41;3.55;;;1.90;;
73909;SDS011;62245;48.070;7.874;2022-08-14T03:10:08;6.00;;;2.47;;
73909;SDS011;62245;48.070;7.874;2022-08-14T03:12:34;5.25;;;2.92;;
73909;SDS011;62245;48.070;7.874;2022-08-14T03:14:59;4.80;;;2.30;;
73909;SDS011;62245;48.070;7.874;2022-08-14T03:17:30;5.05;;;2.25;;
73909;SDS011;62245;48.070;7.874;2022-08-14T03:19:55;2.95;;;1.67;;
73909;SDS011;62245;48.070;7.874;2022-08-14T03:22:20;4.20;;;1.70;;
73909;SDS011;62245;48.070;7.874;2022-08-14T03:24:46;3.57;;;2.10;;
73909;SDS011;62245;48.070;7.874;2022-08-14T03:27:11;3.80;;;2.08;;
73909;SDS011;62245;48.070;7.874;2022-08-14T03:29:37;4.00;;;2.15;;
73909;SDS011;62245;48.070;7.874;2022-08-14T03:32:04;3.72;;;2.10;;
73909;SDS011;62245;48.070;7.874;2022-08-14T03:34:30;4.28;;;2.03;;
73909;SDS011;62245;48.070;7.874;2022-08-14T03:36:55;4.67;;;2.47;;
73909;SDS011;62245;48.070;7.874;2022-08-14T03:39:22;3.75;;;2.15;;
73909;SDS011;62245;48.070;7.874;2022-08-14T03:41:53;6.50;;;2.15;;
73909;SDS011;62245;48.070;7.874;2022-08-14T03:44:20;4.55;;;2.25;;
73909;SDS011;62245;48.070;7.874;2022-08-14T03:46:46;4.45;;;1.70;;
73909;SDS011;62245;48.070;7.874;2022-08-14T03:49:12;4.60;;;2.10;;
73909;SDS011;62245;48.070;7.874;2022-08-14T03:51:37;4.07;;;2.03;;
73909;SDS011;62245;48.070;7.874;2022-08-14T03:54:04;4.47;;;2.28;;
73909;SDS011;62245;48.070;7.874;2022-08-14T03:56:32;3.35;;;1.92;;
73909;SDS011;62245;48.070;7.874;2022-08-14T03:59:01;6.15;;;2.00;;
73909;SDS011;62245;48.070;7.874;2022-08-14T04:01:29;3.83;;;1.98;;
73909;SDS011;62245;48.070;7.874;2022-08-14T04:03:54;5.43;;;2.03;;
73909;SDS011;62245;48.070;7.874;2022-08-14T04:06:30;4.95;;;2.30;;
73909;SDS011;62245;48.070;7.874;2022-08-14T04:08:59;4.55;;;2.17;;
73909;SDS011;62245;48.070;7.874;2022-08-14T04:11:25;6.80;;;2.10;;
73909;SDS011;62245;48.070;7.874;2022-08-14T04:13:50;4.50;;;1.85;;
73909;SDS011;62245;48.070;7.874;2022-08-14T04:16:16;4.15;;;2.30;;
73909;SDS011;62245;48.070;7.874;2022-08-14T04:18:45;4.85;;;2.20;;
73909;SDS011;62245;48.070;7.874;2022-08-14T04:21:14;4.32;;;1.95;;
73909;SDS011;62245;48.070;7.874;2022-08-14T04:23:41;5.10;;;2.80;;
73909;SDS011;62245;48.070;7.874;2022-08-14T04:26:08;5.50;;;2.67;;
73909;SDS011;62245;48.070;7.874;2022-08-14T04:28:35;5.32;;;2.65;;
73909;SDS011;62245;48.070;7.874;2022-08-14T04:31:03;5.40;;;2.30;;
73909;SDS011;62245;48.070;7.874;2022-08-14T04:33:28;3.97;;;2.22;;
73909;SDS011;62245;48.070;7.874;2022-08-14T04:35:54;4.15;;;2.10;;
73909;SDS011;62245;48.070;7.874;2022-08-14T04:38:20;6.22;;;2.35;;
73909;SDS011;62245;48.070;7.874;2022-08-14T04:41:04;4.13;;;2.40;;
73909;SDS011;62245;48.070;7.874;2022-08-14T04:43:48;4.05;;;2.20;;
73909;SDS011;62245;48.070;7.874;2022-08-14T04:46:17;4.13;;;2.40;;
73909;SDS011;62245;48.070;7.874;2022-08-14T04:48:44;3.90;;;1.83;;
73909;SDS011;62245;48.070;7.874;2022-08-14T04:51:11;4.30;;;2.05;;
73909;SDS011;62245;48.070;7.874;2022-08-14T04:53:41;4.78;;;2.30;;
73909;SDS011;62245;48.070;7.874;2022-08-14T04:56:11;4.18;;;2.08;;
73909;SDS011;62245;48.070;7.874;2022-08-14T04:58:39;4.13;;;2.00;;
73909;SDS011;62245;48.070;7.874;2022-08-14T05:01:06;5.40;;;2.35;;
73909;SDS011;62245;48.070;7.874;2022-08-14T05:03:33;6.72;;;2.10;;
73909;SDS011;62245;48.070;7.874;2022-08-14T05:06:01;4.20;;;2.13;;
73909;SDS011;62245;48.070;7.874;2022-08-14T05:08:29;4.20;;;2.30;;
73909;SDS011;62245;48.070;7.874;2022-08-14T05:10:56;4.32;;;2.60;;
73909;SDS011;62245;48.070;7.874;2022-08-14T05:13:23;6.22;;;2.42;;
73909;SDS011;62245;48.070;7.874;2022-08-14T05:15:51;7.72;;;3.67;;
73909;SDS011;62245;48.070;7.874;2022-08-14T05:18:18;4.57;;;2.30;;
73909;SDS011;62245;48.070;7.874;2022-08-14T05:20:46;6.45;;;3.50;;
73909;SDS011;62245;48.070;7.874;2022-08-14T05:23:14;5.28;;;2.83;;
73909;SDS011;62245;48.070;7.874;2022-08-14T05:25:41;4.75;;;2.30;;
73909;SDS011;62245;48.070;7.874;2022-08-14T05:28:11;4.35;;;2.30;;
73909;SDS011;62245;48.070;7.874;2022-08-14T05:30:43;4.28;;;2.20;;
73909;SDS011;62245;48.070;7.874;2022-08-14T05:33:10;4.05;;;1.90;;
73909;SDS011;62245;48.070;7.874;2022-08-14T05:35:36;4.70;;;2.00;;
73909;SDS011;62245;48.070;7.874;2022-08-14T05:38:09;4.68;;;2.22;;
73909;SDS011;62245;48.070;7.874;2022-08-14T05:40:37;4.75;;;2.42;;
73909;SDS011;62245;48.070;7.874;2022-08-14T05:43:02;6.40;;;2.95;;
73909;SDS011;62245;48.070;7.874;2022-08-14T05:45:27;22.03;;;13.47;;
73909;SDS011;62245;48.070;7.874;2022-08-14T05:47:53;13.93;;;7.87;;
73909;SDS011;62245;48.070;7.874;2022-08-14T05:50:19;5.20;;;3.05;;
73909;SDS011;62245;48.070;7.874;2022-08-14T05:52:44;7.20;;;2.55;;
73909;SDS011;62245;48.070;7.874;2022-08-14T05:55:12;5.43;;;2.63;;
73909;SDS011;62245;48.070;7.874;2022-08-14T05:57:47;5.93;;;2.17;;
73909;SDS011;62245;48.070;7.874;2022-08-14T06:00:14;4.40;;;2.35;;
73909;SDS011;62245;48.070;7.874;2022-08-14T06:02:42;4.40;;;1.98;;
73909;SDS011;62245;48.070;7.874;2022-08-14T06:05:07;5.00;;;2.80;;
73909;SDS011;62245;48.070;7.874;2022-08-14T06:07:36;6.35;;;2.67;;
73909;SDS011;62245;48.070;7.874;2022-08-14T06:10:02;4.22;;;2.30;;
73909;SDS011;62245;48.070;7.874;2022-08-14T06:12:30;5.75;;;2.33;;
73909;SDS011;62245;48.070;7.874;2022-08-14T06:14:55;4.43;;;2.03;;
73909;SDS011;62245;48.070;7.874;2022-08-14T06:17:20;3.90;;;2.33;;
73909;SDS011;62245;48.070;7.874;2022-08-14T06:19:46;4.03;;;2.40;;
73909;SDS011;62245;48.070;7.874;2022-08-14T06:22:11;6.50;;;2.53;;
73909;SDS011;62245;48.070;7.874;2022-08-14T06:24:36;5.20;;;2.40;;
73909;SDS011;62245;48.070;7.874;2022-08-14T06:27:02;4.03;;;2.23;;
73909;SDS011;62245;48.070;7.874;2022-08-14T06:29:28;4.70;;;2.50;;
73909;SDS011;62245;48.070;7.874;2022-08-14T06:31:54;5.63;;;2.53;;
73909;SDS011;62245;48.070;7.874;2022-08-14T06:34:19;5.73;;;2.50;;
73909;SDS011;62245;48.070;7.874;2022-08-14T06:36:44;6.17;;;2.57;;
73909;SDS011;62245;48.070;7.874;2022-08-14T06:39:09;3.92;;;1.88;;
73909;SDS011;62245;48.070;7.874;2022-08-14T06:41:35;10.47;;;5.27;;
73909;SDS011;62245;48.070;7.874;2022-08-14T06:44:00;5.80;;;2.43;;
73909;SDS011;62245;48.070;7.874;2022-08-14T06:46:27;6.13;;;2.27;;
73909;SDS011;62245;48.070;7.874;2022-08-14T06:48:53;5.00;;;2.10;;
73909;SDS011;62245;48.070;7.874;2022-08-14T06:51:18;4.20;;;2.17;;
73909;SDS011;62245;48.070;7.874;2022-08-14T06:53:44;4.47;;;2.85;;
73909;SDS011;62245;48.070;7.874;2022-08-14T06:56:11;6.28;;;3.60;;
73909;SDS011;62245;48.070;7.874;2022-08-14T06:58:37;6.68;;;3.13;;
73909;SDS011;62245;48.070;7.874;2022-08-14T07:01:02;7.05;;;3.22;;
73909;SDS011;62245;48.070;7.874;2022-08-14T07:03:46;6.00;;;2.90;;
73909;SDS011;62245;48.070;7.874;2022-08-14T07:06:30;4.35;;;2.47;;
73909;SDS011;62245;48.070;7.874;2022-08-14T07:08:56;4.63;;;2.23;;
73909;SDS011;62245;48.070;7.874;2022-08-14T07:11:21;4.73;;;2.47;;
73909;SDS011;62245;48.070;7.874;2022-08-14T07:13:46;4.93;;;2.23;;
73909;SDS011;62245;48.070;7.874;2022-08-14T07:16:12;4.65;;;1.90;;
73909;SDS011;62245;48.070;7.874;2022-08-14T07:18:37;3.85;;;1.90;;
73909;SDS011;62245;48.070;7.874;2022-08-14T07:21:04;4.88;;;2.38;;
73909;SDS011;62245;48.070;7.874;2022-08-14T07:23:30;4.53;;;2.08;;
73909;SDS011;62245;48.070;7.874;2022-08-14T07:25:57;5.47;;;2.13;;
73909;SDS011;62245;48.070;7.874;2022-08-14T07:28:33;5.78;;;2.60;;
73909;SDS011;62245;48.070;7.874;2022-08-14T07:31:01;4.95;;;2.30;;
73909;SDS011;62245;48.070;7.874;2022-08-14T07:33:30;4.75;;;2.28;;
73909;SDS011;62245;48.070;7.874;2022-08-14T07:35:59;5.63;;;3.30;;
73909;SDS011;62245;48.070;7.874;2022-08-14T07:40:52;4.15;;;1.77;;
73909;SDS011;62245;48.070;7.874;2022-08-14T07:43:18;4.18;;;2.13;;
73909;SDS011;62245;48.070;7.874;2022-08-14T07:45:45;6.53;;;3.38;;
73909;SDS011;62245;48.070;7.874;2022-08-14T07:48:11;14.13;;;9.55;;
73909;SDS011;62245;48.070;7.874;2022-08-14T07:50:36;4.25;;;2.10;;
73909;SDS011;62245;48.070;7.874;2022-08-14T07:53:03;6.47;;;2.00;;
73909;SDS011;62245;48.070;7.874;2022-08-14T07:55:30;6.03;;;2.40;;
73909;SDS011;62245;48.070;7.874;2022-08-14T07:57:56;6.28;;;2.50;;
73909;SDS011;62245;48.070;7.874;2022-08-14T08:00:22;4.50;;;2.30;;
73909;SDS011;62245;48.070;7.874;2022-08-14T08:02:50;5.30;;;2.20;;
73909;SDS011;62245;48.070;7.874;2022-08-14T08:05:18;6.20;;;2.28;;
73909;SDS011;62245;48.070;7.874;2022-08-14T08:07:46;4.82;;;2.17;;
73909;SDS011;62245;48.070;7.874;2022-08-14T08:10:23;4.80;;;2.60;;
73909;SDS011;62245;48.070;7.874;2022-08-14T08:12:56;4.25;;;2.50;;
73909;SDS011;62245;48.070;7.874;2022-08-14T08:15:25;3.80;;;1.83;;
73909;SDS011;62245;48.070;7.874;2022-08-14T08:17:54;3.78;;;1.90;;
73909;SDS011;62245;48.070;7.874;2022-08-14T08:20:20;4.82;;;2.10;;
73909;SDS011;62245;48.070;7.874;2022-08-14T08:22:51;5.10;;;2.47;;
73909;SDS011;62245;48.070;7.874;2022-08-14T08:25:20;4.60;;;2.03;;
73909;SDS011;62245;48.070;7.874;2022-08-14T08:27:56;4.05;;;2.25;;
73909;SDS011;62245;48.070;7.874;2022-08-14T08:30:31;4.78;;;2.22;;
73909;SDS011;62245;48.070;7.874;2022-08-14T08:32:57;3.90;;;2.08;;
73909;SDS011;62245;48.070;7.874;2022-08-14T08:35:26;6.55;;;2.40;;
73909;SDS011;62245;48.070;7.874;2022-08-14T08:37:54;4.28;;;2.22;;
73909;SDS011;62245;48.070;7.874;2022-08-14T08:40:26;4.63;;;2.55;;
73909;SDS011;62245;48.070;7.874;2022-08-14T08:42:53;4.28;;;2.35;;
73909;SDS011;62245;48.070;7.874;2022-08-14T08:45:18;5.97;;;2.30;;
73909;SDS011;62245;48.070;7.874;2022-08-14T08:47:44;4.93;;;2.50;;
73909;SDS011;62245;48.070;7.874;2022-08-14T08:50:20;6.43;;;3.60;;
73909;SDS011;62245;48.070;7.874;2022-08-14T08:52:52;4.10;;;2.20;;
73909;SDS011;62245;48.070;7.874;2022-08-14T08:57:56;5.07;;;2.83;;
73909;SDS011;62245;48.070;7.874;2022-08-14T09:00:23;6.90;;;2.00;;
73909;SDS011;62245;48.070;7.874;2022-08-14T09:02:53;4.53;;;2.30;;
73909;SDS011;62245;48.070;7.874;2022-08-14T09:05:21;5.47;;;2.80;;
73909;SDS011;62245;48.070;7.874;2022-08-14T09:07:47;11.00;;;6.97;;
73909;SDS011;62245;48.070;7.874;2022-08-14T09:10:12;6.20;;;3.15;;
73909;SDS011;62245;48.070;7.874;2022-08-14T09:12:37;6.07;;;1.95;;
73909;SDS011;62245;48.070;7.874;2022-08-14T09:15:04;4.38;;;1.85;;
73909;SDS011;62245;48.070;7.874;2022-08-14T09:17:31;4.78;;;2.28;;
73909;SDS011;62245;48.070;7.874;2022-08-14T09:19:56;3.95;;;2.28;;
73909;SDS011;62245;48.070;7.874;2022-08-14T09:22:23;5.13;;;1.90;;
73909;SDS011;62245;48.070;7.874;2022-08-14T09:24:49;3.90;;;2.40;;
73909;SDS011;62245;48.070;7.874;2022-08-14T09:27:15;4.32;;;2.20;;
73909;SDS011;62245;48.070;7.874;2022-08-14T09:29:40;3.80;;;2.00;;
73909;SDS011;62245;48.070;7.874;2022-08-14T09:32:06;5.90;;;3.75;;
73909;SDS011;62245;48.070;7.874;2022-08-14T09:40:23;5.45;;;2.03;;
73909;SDS011;62245;48.070;7.874;2022-08-14T09:45:57;6.03;;;2.50;;
73909;SDS011;62245;48.070;7.874;2022-08-14T09:48:23;4.70;;;1.80;;
73909;SDS011;62245;48.070;7.874;2022-08-14T09:50:54;5.30;;;2.30;;
73909;SDS011;62245;48.070;7.874;2022-08-14T09:53:39;3.40;;;2.00;;
73909;SDS011;62245;48.070;7.874;2022-08-14T09:56:08;5.30;;;2.45;;
73909;SDS011;62245;48.070;7.874;2022-08-14T09:58:38;5.22;;;2.50;;
73909;SDS011;62245;48.070;7.874;2022-08-14T10:01:18;4.38;;;2.08;;
73909;SDS011;62245;48.070;7.874;2022-08-14T10:03:52;4.85;;;1.83;;
73909;SDS011;62245;48.070;7.874;2022-08-14T10:06:20;5.20;;;2.10;;
73909;SDS011;62245;48.070;7.874;2022-08-14T10:08:51;4.30;;;2.50;;
73909;SDS011;62245;48.070;7.874;2022-08-14T10:11:26;3.65;;;1.83;;
73909;SDS011;62245;48.070;7.874;2022-08-14T10:16:41;4.38;;;2.35;;
73909;SDS011;62245;48.070;7.874;2022-08-14T10:19:09;5.63;;;2.10;;
73909;SDS011;62245;48.070;7.874;2022-08-14T10:21:37;4.38;;;2.03;;
73909;SDS011;62245;48.070;7.874;2022-08-14T10:24:05;4.03;;;2.45;;
73909;SDS011;62245;48.070;7.874;2022-08-14T10:26:33;5.07;;;2.35;;
73909;SDS011;62245;48.070;7.874;2022-08-14T10:29:05;3.60;;;1.73;;
73909;SDS011;62245;48.070;7.874;2022-08-14T10:31:34;3.28;;;1.70;;
73909;SDS011;62245;48.070;7.874;2022-08-14T10:34:01;6.60;;;3.47;;
73909;SDS011;62245;48.070;7.874;2022-08-14T10:36:27;5.05;;;2.47;;
73909;SDS011;62245;48.070;7.874;2022-08-14T10:39:20;4.15;;;2.10;;
73909;SDS011;62245;48.070;7.874;2022-08-14T10:41:47;3.85;;;1.92;;
73909;SDS011;62245;48.070;7.874;2022-08-14T10:44:15;3.17;;;2.00;;
73909;SDS011;62245;48.070;7.874;2022-08-14T10:49:31;5.13;;;1.98;;
73909;SDS011;62245;48.070;7.874;2022-08-14T10:54:35;3.95;;;1.60;;
73909;SDS011;62245;48.070;7.874;2022-08-14T10:57:16;3.35;;;2.03;;
73909;SDS011;62245;48.070;7.874;2022-08-14T10:59:49;3.83;;;2.05;;
73909;SDS011;62245;48.070;7.874;2022-08-14T11:02:22;3.38;;;1.60;;
73909;SDS011;62245;48.070;7.874;2022-08-14T11:04:59;4.68;;;2.10;;
73909;SDS011;62245;48.070;7.874;2022-08-14T11:07:25;4.20;;;1.80;;
73909;SDS011;62245;48.070;7.874;2022-08-14T11:09:52;3.45;;;1.95;;
73909;SDS011;62245;48.070;7.874;2022-08-14T11:12:18;5.90;;;2.00;;
73909;SDS011;62245;48.070;7.874;2022-08-14T11:14:53;4.15;;;2.20;;
73909;SDS011;62245;48.070;7.874;2022-08-14T11:17:23;4.57;;;2.17;;
73909;SDS011;62245;48.070;7.874;2022-08-14T11:19:52;4.93;;;2.00;;
73909;SDS011;62245;48.070;7.874;2022-08-14T11:22:21;3.50;;;2.10;;
73909;SDS011;62245;48.070;7.874;2022-08-14T11:24:51;4.85;;;2.22;;
73909;SDS011;62245;48.070;7.874;2022-08-14T11:27:20;5.75;;;2.45;;
73909;SDS011;62245;48.070;7.874;2022-08-14T11:29:49;8.00;;;1.95;;
73909;SDS011;62245;48.070;7.874;2022-08-14T11:32:15;4.40;;;2.05;;
73909;SDS011;62245;48.070;7.874;2022-08-14T11:34:43;4.40;;;2.40;;
73909;SDS011;62245;48.070;7.874;2022-08-14T11:37:10;5.43;;;2.80;;
73909;SDS011;62245;48.070;7.874;2022-08-14T11:39:36;4.13;;;2.38;;
73909;SDS011;62245;48.070;7.874;2022-08-14T11:42:05;5.32;;;2.15;;
73909;SDS011;62245;48.070;7.874;2022-08-14T11:44:31;4.80;;;2.45;;
73909;SDS011;62245;48.070;7.874;2022-08-14T11:46:57;4.45;;;2.30;;
73909;SDS011;62245;48.070;7.874;2022-08-14T11:49:25;4.47;;;2.60;;
73909;SDS011;62245;48.070;7.874;2022-08-14T11:51:53;4.63;;;2.45;;
73909;SDS011;62245;48.070;7.874;2022-08-14T11:54:18;5.82;;;2.30;;
73909;SDS011;62245;48.070;7.874;2022-08-14T11:56:44;5.50;;;2.50;;
73909;SDS011;62245;48.070;7.874;2022-08-14T11:59:15;4.97;;;2.83;;
73909;SDS011;62245;48.070;7.874;2022-08-14T12:01:45;6.53;;;3.00;;
73909;SDS011;62245;48.070;7.874;2022-08-14T12:04:11;7.93;;;3.00;;
73909;SDS011;62245;48.070;7.874;2022-08-14T12:09:33;6.07;;;3.65;;
73909;SDS011;62245;48.070;7.874;2022-08-14T12:12:15;8.52;;;4.18;;
73909;SDS011;62245;48.070;7.874;2022-08-14T12:14:49;8.25;;;3.95;;
73909;SDS011;62245;48.070;7.874;2022-08-14T12:20:03;9.63;;;4.20;;
73909;SDS011;62245;48.070;7.874;2022-08-14T12:24:58;13.98;;;4.85;;
73909;SDS011;62245;48.070;7.874;2022-08-14T12:27:43;9.10;;;4.30;;
73909;SDS011;62245;48.070;7.874;2022-08-14T12:30:24;11.45;;;5.38;;
73909;SDS011;62245;48.070;7.874;2022-08-14T12:32:50;7.45;;;4.43;;
73909;SDS011;62245;48.070;7.874;2022-08-14T12:35:15;8.10;;;4.90;;
73909;SDS011;62245;48.070;7.874;2022-08-14T12:37:47;9.25;;;4.57;;
73909;SDS011;62245;48.070;7.874;2022-08-14T12:40:14;9.25;;;5.22;;
73909;SDS011;62245;48.070;7.874;2022-08-14T12:42:41;9.57;;;5.80;;
73909;SDS011;62245;48.070;7.874;2022-08-14T12:45:08;10.63;;;4.65;;
73909;SDS011;62245;48.070;7.874;2022-08-14T12:47:39;8.52;;;5.00;;
73909;SDS011;62245;48.070;7.874;2022-08-14T12:50:06;7.53;;;4.85;;
73909;SDS011;62245;48.070;7.874;2022-08-14T12:52:33;11.73;;;5.85;;
73909;SDS011;62245;48.070;7.874;2022-08-14T12:57:41;11.65;;;6.13;;
73909;SDS011;62245;48.070;7.874;2022-08-14T13:00:10;10.63;;;5.65;;
73909;SDS011;62245;48.070;7.874;2022-08-14T13:02:44;11.77;;;6.78;;
73909;SDS011;62245;48.070;7.874;2022-08-14T13:05:11;8.98;;;6.05;;
73909;SDS011;62245;48.070;7.874;2022-08-14T13:07:38;12.40;;;5.60;;
73909;SDS011;62245;48.070;7.874;2022-08-14T13:10:08;9.93;;;6.40;;
73909;SDS011;62245;48.070;7.874;2022-08-14T13:12:36;9.40;;;6.22;;
73909;SDS011;62245;48.070;7.874;2022-08-14T13:15:03;11.13;;;5.93;;
73909;SDS011;62245;48.070;7.874;2022-08-14T13:17:30;10.25;;;6.20;;
73909;SDS011;62245;48.070;7.874;2022-08-14T13:20:02;15.35;;;4.82;;
73909;SDS011;62245;48.070;7.874;2022-08-14T13:22:29;14.70;;;4.63;;
73909;SDS011;62245;48.070;7.874;2022-08-14T13:24:54;8.85;;;3.85;;
73909;SDS011;62245;48.070;7.874;2022-08-14T13:27:21;11.50;;;4.38;;
73909;SDS011;62245;48.070;7.874;2022-08-14T13:29:49;12.13;;;3.95;;
73909;SDS011;62245;48.070;7.874;2022-08-14T13:32:20;9.90;;;3.42;;
73909;SDS011;62245;48.070;7.874;2022-08-14T13:34:49;12.15;;;3.40;;
73909;SDS011;62245;48.070;7.874;2022-08-14T13:37:15;13.43;;;3.05;;
73909;SDS011;62245;48.070;7.874;2022-08-14T13:39:46;8.43;;;3.58;;
73909;SDS011;62245;48.070;7.874;2022-08-14T13:42:13;5.40;;;2.30;;
73909;SDS011;62245;48.070;7.874;2022-08-14T13:47:09;12.68;;;3.08;;
73909;SDS011;62245;48.070;7.874;2022-08-14T13:49:34;8.77;;;3.03;;
73909;SDS011;62245;48.070;7.874;2022-08-14T13:52:02;8.57;;;2.45;;
73909;SDS011;62245;48.070;7.874;2022-08-14T13:54:29;14.70;;;3.28;;
73909;SDS011;62245;48.070;7.874;2022-08-14T13:56:59;9.10;;;2.80;;
73909;SDS011;62245;48.070;7.874;2022-08-14T13:59:27;9.68;;;2.80;;
73909;SDS011;62245;48.070;7.874;2022-08-14T14:01:55;8.40;;;2.42;;
73909;SDS011;62245;48.070;7.874;2022-08-14T14:04:27;8.15;;;2.60;;
73909;SDS011;62245;48.070;7.874;2022-08-14T14:06:55;7.35;;;2.00;;
73909;SDS011;62245;48.070;7.874;2022-08-14T14:09:28;7.32;;;2.30;;
73909;SDS011;62245;48.070;7.874;2022-08-14T14:11:58;7.78;;;2.50;;
73909;SDS011;62245;48.070;7.874;2022-08-14T14:14:24;7.38;;;2.40;;
73909;SDS011;62245;48.070;7.874;2022-08-14T14:16:49;8.68;;;2.58;;
73909;SDS011;62245;48.070;7.874;2022-08-14T14:19:16;8.15;;;2.95;;
73909;SDS011;62245;48.070;7.874;2022-08-14T14:21:43;8.20;;;2.60;;
73909;SDS011;62245;48.070;7.874;2022-08-14T14:24:13;8.45;;;2.53;;
73909;SDS011;62245;48.070;7.874;2022-08-14T14:26:38;12.07;;;3.22;;
73909;SDS011;62245;48.070;7.874;2022-08-14T14:29:08;8.65;;;3.15;;
73909;SDS011;62245;48.070;7.874;2022-08-14T14:31:38;6.90;;;2.55;;
73909;SDS011;62245;48.070;7.874;2022-08-14T14:34:04;6.45;;;2.70;;
73909;SDS011;62245;48.070;7.874;2022-08-14T14:36:31;8.68;;;4.68;;
73909;SDS011;62245;48.070;7.874;2022-08-14T14:39:06;5.78;;;2.17;;
73909;SDS011;62245;48.070;7.874;2022-08-14T14:41:32;9.00;;;2.70;;
73909;SDS011;62245;48.070;7.874;2022-08-14T14:44:02;6.32;;;2.88;;
73909;SDS011;62245;48.070;7.874;2022-08-14T14:46:31;6.15;;;2.95;;
73909;SDS011;62245;48.070;7.874;2022-08-14T14:49:00;6.18;;;2.50;;
73909;SDS011;62245;48.070;7.874;2022-08-14T14:51:27;5.68;;;2.17;;
73909;SDS011;62245;48.070;7.874;2022-08-14T14:53:52;7.90;;;2.40;;
73909;SDS011;62245;48.070;7.874;2022-08-14T14:56:18;6.40;;;2.50;;
73909;SDS011;62245;48.070;7.874;2022-08-14T14:58:44;8.70;;;2.75;;
73909;SDS011;62245;48.070;7.874;2022-08-14T15:01:10;7.35;;;2.53;;
73909;SDS011;62245;48.070;7.874;2022-08-14T15:03:37;5.85;;;2.50;;
73909;SDS011;62245;48.070;7.874;2022-08-14T15:06:03;6.72;;;2.10;;
73909;SDS011;62245;48.070;7.874;2022-08-14T15:08:28;6.93;;;2.20;;
73909;SDS011;62245;48.070;7.874;2022-08-14T15:10:55;5.03;;;2.65;;
73909;SDS011;62245;48.070;7.874;2022-08-14T15:13:21;7.10;;;2.70;;
73909;SDS011;62245;48.070;7.874;2022-08-14T15:15:47;9.95;;;2.70;;
73909;SDS011;62245;48.070;7.874;2022-08-14T15:18:12;8.25;;;2.90;;
73909;SDS011;62245;48.070;7.874;2022-08-14T15:20:38;5.80;;;2.90;;
73909;SDS011;62245;48.070;7.874;2022-08-14T15:23:03;6.47;;;2.40;;
73909;SDS011;62245;48.070;7.874;2022-08-14T15:25:30;6.95;;;2.30;;
73909;SDS011;62245;48.070;7.874;2022-08-14T15:27:59;7.40;;;2.58;;
73909;SDS011;62245;48.070;7.874;2022-08-14T15:30:26;6.78;;;2.28;;
73909;SDS011;62245;48.070;7.874;2022-08-14T15:32:52;6.63;;;2.50;;
73909;SDS011;62245;48.070;7.874;2022-08-14T15:35:18;7.05;;;2.70;;